CheckWX is a tool to help pilots better visualize weather data.  It is not intended as a substitute for an official pre-flight weather briefing.

02:12:43 UTC

5R8 METAR
De Quincy Industrial Airpark
De Quincy, Louisiana, USA
Current

18 mins ago

K5R8 200155Z AUTO 00000KT 10SM CLR 27/24 A3001 RMK AO2 T02720243
Observed
Jul-20 @ 01:55 UTC
Visibility
10 SM
Flight Rules
VFR
Cloud Levels
  • Clear skies
Temperature
27°C / 81°F
Dewpoint
24°C / 75°F
Heat Index
31°C / 87°F
Humidity
84%
Altimeter
30.01" Hg
Pressure
1016.22 hPa
Previous

38 mins ago

K5R8 200135Z AUTO 15003KT 10SM SCT022 SCT027 27/24 A3000 RMK AO2 T02740243
Observed
Jul-20 @ 01:35 UTC
Wind
  • 150° at 3 KTS
Visibility
10 SM
Flight Rules
VFR
Cloud Levels
  • Scattered at 2,200' AGL
  • Scattered at 2,700' AGL
Temperature
27°C / 81°F
Dewpoint
24°C / 75°F
Heat Index
31°C / 87°F
Humidity
84%
Altimeter
30" Hg
Pressure
1015.92 hPa
Previous

1 hour ago

K5R8 200110Z AUTO 16003KT 10SM CLR 28/24 A3000 RMK AO2 T02800242
Observed
Jul-20 @ 01:10 UTC
Wind
  • 160° at 3 KTS
Visibility
10 SM
Flight Rules
VFR
Cloud Levels
  • Clear skies
Temperature
28°C / 82°F
Dewpoint
24°C / 75°F
Heat Index
32°C / 89°F
Humidity
79%
Altimeter
30" Hg
Pressure
1015.92 hPa